createdAt,value
2023-03-22T00:01:28.788Z,3.60
2023-03-22T00:03:56.204Z,7.00
2023-03-22T00:06:24.213Z,7.00
2023-03-22T00:08:52.683Z,6.90
2023-03-22T00:11:21.178Z,6.80
2023-03-22T00:13:48.334Z,6.90
2023-03-22T00:16:15.778Z,6.90
2023-03-22T00:18:42.787Z,6.90
2023-03-22T00:21:15.470Z,7.30
2023-03-22T00:23:43.274Z,3.70
2023-03-22T00:26:11.532Z,6.20
2023-03-22T00:28:38.827Z,7.10
2023-03-22T00:31:06.966Z,7.10
2023-03-22T00:33:36.459Z,7.30
2023-03-22T00:36:07.934Z,6.90
2023-03-22T00:38:42.911Z,7.20
2023-03-22T00:41:29.311Z,7.20
2023-03-22T00:43:56.298Z,7.20
2023-03-22T00:48:50.735Z,7.20
2023-03-22T00:51:18.232Z,7.30
2023-03-22T00:53:45.485Z,7.30
2023-03-22T00:56:14.417Z,7.50
2023-03-22T00:58:42.247Z,7.30
2023-03-22T01:01:09.775Z,7.60
2023-03-22T01:03:38.792Z,7.60
2023-03-22T01:15:56.529Z,7.40
2023-03-22T01:18:23.672Z,7.30
2023-03-22T01:20:51.647Z,7.30
2023-03-22T01:25:46.795Z,7.40
2023-03-22T01:30:41.743Z,7.40
2023-03-22T01:33:10.986Z,7.40
2023-03-22T01:35:38.019Z,7.40
2023-03-22T01:38:05.118Z,7.40
2023-03-22T01:40:33.111Z,7.40
2023-03-22T01:43:00.130Z,7.40
2023-03-22T01:45:41.570Z,7.50
2023-03-22T01:48:24.110Z,7.70
2023-03-22T01:51:13.897Z,7.50
2023-03-22T01:53:44.614Z,7.60
2023-03-22T01:56:12.878Z,7.60
2023-03-22T01:58:41.270Z,7.60
2023-03-22T02:01:10.588Z,7.60
2023-03-22T02:04:03.651Z,7.60
2023-03-22T02:14:27.311Z,7.60
2023-03-22T02:17:19.826Z,7.60
2023-03-22T02:20:21.645Z,7.70
2023-03-22T02:23:28.332Z,7.70
2023-03-22T02:26:15.525Z,7.70
2023-03-22T02:29:22.433Z,7.80
2023-03-22T02:32:29.143Z,8.00
2023-03-22T02:35:15.847Z,7.70
2023-03-22T02:38:22.670Z,7.50
2023-03-22T02:41:22.697Z,7.70
2023-03-22T02:44:17.135Z,7.80
2023-03-22T02:46:51.392Z,5.20
2023-03-22T02:49:28.668Z,7.70
2023-03-22T02:52:03.604Z,7.70
2023-03-22T02:55:10.310Z,7.80
2023-03-22T03:02:45.760Z,7.80
2023-03-22T03:05:15.052Z,7.80
2023-03-22T03:10:15.244Z,7.80
2023-03-22T03:12:42.977Z,7.70
2023-03-22T03:15:15.500Z,7.70
2023-03-22T03:18:11.508Z,7.60
2023-03-22T03:21:04.360Z,7.60
2023-03-22T03:23:58.081Z,7.60
2023-03-22T03:27:04.737Z,7.60
2023-03-22T03:29:37.946Z,7.60
2023-03-22T03:32:13.202Z,7.50
2023-03-22T03:42:17.868Z,7.50
2023-03-22T03:44:45.437Z,7.50
2023-03-22T03:47:13.326Z,7.50
2023-03-22T04:04:28.593Z,7.50
2023-03-22T04:09:27.468Z,7.40
2023-03-22T04:11:55.698Z,7.50
2023-03-22T04:24:13.654Z,7.30
2023-03-22T04:34:05.794Z,7.40
2023-03-22T04:36:39.473Z,7.30
2023-03-22T04:39:09.573Z,7.30
2023-03-22T04:41:37.318Z,7.40
2023-03-22T04:44:05.779Z,7.40
2023-03-22T04:46:35.152Z,7.30
2023-03-22T04:49:02.303Z,7.30
2023-03-22T05:06:15.362Z,7.40
2023-03-22T05:08:42.593Z,7.40
2023-03-22T05:11:15.200Z,7.40
2023-03-22T05:16:10.829Z,7.40
2023-03-22T05:21:15.665Z,7.40
2023-03-22T05:23:43.860Z,7.40
2023-03-22T05:26:15.665Z,7.40
2023-03-22T05:28:44.260Z,7.40
2023-03-22T05:36:11.443Z,7.50
2023-03-22T05:46:01.301Z,7.50
2023-03-22T05:58:19.242Z,7.60
2023-03-22T06:00:49.972Z,7.60
2023-03-22T06:03:18.475Z,7.70
2023-03-22T06:10:41.295Z,7.60
2023-03-22T06:13:09.273Z,7.70
2023-03-22T06:15:36.472Z,7.70
2023-03-22T06:18:03.557Z,7.70
2023-03-22T06:20:30.584Z,7.80
2023-03-22T06:22:57.598Z,7.70
2023-03-22T06:25:24.681Z,7.70
2023-03-22T06:30:20.381Z,7.70
2023-03-22T06:40:10.980Z,7.80
2023-03-22T06:42:37.994Z,7.80
2023-03-22T06:52:33.248Z,7.70
2023-03-22T06:55:00.266Z,6.00
2023-03-22T07:09:44.460Z,8.00
2023-03-22T08:06:25.225Z,9.40
2023-03-22T08:08:52.329Z,9.70
2023-03-22T08:21:11.532Z,9.50
2023-03-22T08:23:42.181Z,9.20
2023-03-22T08:26:10.827Z,6.30
2023-03-22T08:31:15.852Z,9.70
2023-03-22T08:33:43.684Z,9.80
2023-03-22T08:36:14.198Z,9.80
2023-03-22T08:39:06.656Z,9.80
2023-03-22T08:53:53.888Z,10.00
2023-03-22T09:01:18.191Z,10.30
2023-03-22T09:08:42.624Z,10.70
2023-03-22T09:11:10.843Z,10.80
2023-03-22T09:13:38.415Z,10.90
2023-03-22T09:16:09.024Z,10.60
2023-03-22T09:18:40.943Z,10.80
2023-03-22T09:21:09.009Z,11.00
2023-03-22T09:23:38.020Z,11.20
2023-03-22T09:26:07.767Z,11.90
2023-03-22T09:28:36.183Z,11.20
2023-03-22T09:31:06.905Z,15.80
2023-03-22T09:33:34.997Z,11.40
2023-03-22T09:38:32.617Z,10.90
2023-03-22T09:41:05.535Z,10.80
2023-03-22T09:43:36.860Z,10.80
2023-03-22T09:46:08.030Z,10.80
2023-03-22T09:48:39.234Z,10.80
2023-03-22T09:51:13.778Z,10.80
2023-03-22T09:53:40.772Z,7.10
2023-03-22T09:56:20.391Z,11.00
2023-03-22T09:59:27.218Z,11.00
2023-03-22T10:02:01.448Z,11.10
2023-03-22T10:04:56.568Z,11.20
2023-03-22T10:08:03.251Z,11.50
2023-03-22T10:10:30.815Z,11.20
2023-03-22T10:13:07.813Z,11.20
2023-03-22T10:15:57.314Z,11.30
2023-03-22T10:18:50.683Z,11.50
2023-03-22T10:21:19.637Z,8.20
2023-03-22T10:24:17.372Z,11.70
2023-03-22T10:26:47.777Z,11.70
2023-03-22T10:29:37.981Z,10.90
2023-03-22T10:32:29.532Z,12.10
2023-03-22T10:34:57.015Z,12.10
2023-03-22T10:37:32.163Z,12.30
2023-03-22T10:40:08.048Z,12.50
2023-03-22T10:42:39.070Z,11.50
2023-03-22T10:45:16.062Z,12.80
2023-03-22T10:47:53.470Z,12.70
2023-03-22T10:50:28.603Z,12.80
2023-03-22T10:53:19.569Z,9.10
2023-03-22T10:58:17.794Z,12.80
2023-03-22T11:00:49.792Z,13.00
2023-03-22T11:03:49.523Z,13.20
2023-03-22T11:06:21.037Z,11.40
2023-03-22T11:09:24.123Z,12.30
2023-03-22T11:12:13.690Z,13.50
2023-03-22T11:14:45.202Z,16.30
2023-03-22T11:17:15.412Z,13.10
2023-03-22T11:19:55.380Z,13.70
2023-03-22T11:22:45.448Z,13.70
2023-03-22T11:25:21.062Z,11.90
2023-03-22T11:28:10.489Z,13.70
2023-03-22T11:30:38.196Z,13.80
2023-03-22T11:33:26.167Z,13.80
2023-03-22T11:35:56.797Z,13.80
2023-03-22T11:38:45.533Z,13.90
2023-03-22T11:41:23.852Z,13.60
2023-03-22T11:44:12.089Z,13.40
2023-03-22T11:46:40.196Z,13.30
2023-03-22T11:49:14.570Z,13.30
2023-03-22T11:51:43.221Z,13.10
2023-03-22T11:54:32.018Z,12.50
2023-03-22T11:57:04.445Z,13.10
2023-03-22T11:59:38.792Z,13.20
2023-03-22T12:02:46.426Z,13.10
2023-03-22T12:05:32.036Z,13.10
2023-03-22T12:08:06.358Z,13.20
2023-03-22T12:10:39.724Z,13.10
2023-03-22T12:13:16.051Z,13.40
2023-03-22T12:15:48.631Z,13.20
2023-03-22T12:18:22.792Z,13.10
2023-03-22T12:20:55.693Z,13.20
2023-03-22T12:23:25.698Z,13.00
2023-03-22T12:26:33.454Z,11.50
2023-03-22T12:29:19.340Z,11.10
2023-03-22T12:32:12.442Z,13.20
2023-03-22T12:34:43.803Z,13.00
2023-03-22T12:37:17.402Z,12.90
2023-03-22T12:40:08.646Z,12.90
2023-03-22T12:42:55.468Z,12.40
2023-03-22T12:45:28.711Z,12.80
2023-03-22T12:51:52.242Z,12.80
2023-03-22T12:54:23.445Z,12.70
2023-03-22T12:56:51.878Z,12.70
2023-03-22T12:59:27.254Z,13.40
2023-03-22T13:01:56.553Z,9.50
2023-03-22T13:04:53.198Z,12.70
2023-03-22T13:08:03.674Z,13.10
2023-03-22T13:11:00.339Z,9.90
2023-03-22T13:13:44.284Z,12.50
2023-03-22T13:16:51.224Z,12.50
2023-03-22T13:19:30.001Z,12.40
2023-03-22T13:22:18.919Z,12.50
2023-03-22T13:25:13.534Z,9.70
2023-03-22T13:28:20.232Z,12.40
2023-03-22T13:31:07.173Z,12.40
2023-03-22T13:33:36.838Z,12.30
2023-03-22T13:36:25.131Z,12.30
2023-03-22T13:38:59.108Z,12.30
2023-03-22T13:41:30.597Z,12.40
2023-03-22T13:44:02.111Z,12.50
2023-03-22T13:46:44.765Z,12.60
2023-03-22T13:49:39.329Z,12.60
2023-03-22T13:52:08.648Z,12.60
2023-03-22T13:54:44.303Z,12.60
2023-03-22T13:57:33.604Z,12.70
2023-03-22T14:00:14.386Z,12.60
2023-03-22T14:02:43.312Z,12.60
2023-03-22T14:05:17.816Z,12.60
2023-03-22T14:07:50.928Z,12.50
2023-03-22T14:10:22.862Z,12.60
2023-03-22T14:13:14.884Z,12.40
2023-03-22T14:15:48.838Z,12.40
2023-03-22T14:18:38.498Z,12.30
2023-03-22T14:21:12.736Z,12.30
